createdAt,value
2016-11-18T00:00:47.837Z,0
2016-11-18T00:01:47.904Z,0
2016-11-18T00:02:47.849Z,0
2016-11-18T00:03:48.007Z,0
2016-11-18T00:04:47.952Z,0
2016-11-18T00:05:48.302Z,0
2016-11-18T00:06:47.919Z,0
2016-11-18T00:07:47.849Z,0
2016-11-18T00:08:47.841Z,0
2016-11-18T00:09:47.841Z,0
2016-11-18T00:10:47.956Z,0
2016-11-18T00:11:48.128Z,0
2016-11-18T00:12:48.125Z,0
2016-11-18T00:13:48.560Z,0
2016-11-18T00:14:48.944Z,0
2016-11-18T00:15:47.921Z,0
2016-11-18T00:16:48.727Z,0
2016-11-18T00:17:47.932Z,0
2016-11-18T00:18:49.120Z,0
2016-11-18T00:19:48.268Z,0
2016-11-18T00:20:48.093Z,0
2016-11-18T00:21:48.775Z,0
2016-11-18T00:22:47.929Z,0
2016-11-18T00:23:48.041Z,0
2016-11-18T00:24:48.345Z,0
2016-11-18T00:25:47.904Z,0
2016-11-18T00:26:48.262Z,0
2016-11-18T00:27:48.550Z,0
2016-11-18T00:28:47.910Z,0
2016-11-18T00:29:47.859Z,0
2016-11-18T00:30:47.872Z,0
2016-11-18T00:31:47.904Z,0
2016-11-18T00:32:47.878Z,0
2016-11-18T00:33:47.966Z,0
2016-11-18T00:34:47.984Z,0
2016-11-18T00:36:01.326Z,0
2016-11-18T00:36:51.750Z,0
2016-11-18T00:38:00.945Z,0
2016-11-18T00:38:52.765Z,0
2016-11-18T00:39:54.752Z,0
2016-11-18T00:40:47.923Z,0
2016-11-18T00:42:01.259Z,0
2016-11-18T00:43:00.717Z,0
2016-11-18T00:44:00.292Z,0
2016-11-18T00:45:00.184Z,0
2016-11-18T00:46:01.641Z,0
2016-11-18T00:46:59.915Z,0
2016-11-18T00:48:00.558Z,0
2016-11-18T00:49:01.603Z,0
2016-11-18T00:50:00.974Z,0
2016-11-18T00:51:00.001Z,0
2016-11-18T00:52:01.223Z,0
2016-11-18T00:53:00.280Z,0
2016-11-18T00:54:01.133Z,0
2016-11-18T00:54:59.926Z,0
2016-11-18T00:55:59.867Z,0
2016-11-18T00:57:00.875Z,0
2016-11-18T00:58:01.088Z,0
2016-11-18T00:59:00.320Z,0
2016-11-18T01:00:02.226Z,0
2016-11-18T01:00:48.029Z,0
2016-11-18T01:01:48.234Z,0
2016-11-18T01:02:47.764Z,0
2016-11-18T01:03:48.645Z,0
2016-11-18T01:04:47.776Z,0
2016-11-18T01:05:51.273Z,0
2016-11-18T01:06:47.789Z,0
2016-11-18T01:07:47.842Z,0
2016-11-18T01:08:47.765Z,0
2016-11-18T01:09:47.763Z,0
2016-11-18T01:10:47.769Z,0
2016-11-18T01:11:47.768Z,0
2016-11-18T01:12:48.674Z,0
2016-11-18T01:13:47.762Z,0
2016-11-18T01:14:47.779Z,0
2016-11-18T01:15:47.744Z,0
2016-11-18T01:16:48.129Z,0
2016-11-18T01:17:47.738Z,0
2016-11-18T01:18:48.438Z,0
2016-11-18T01:19:47.751Z,0
2016-11-18T01:20:47.747Z,0
2016-11-18T01:21:47.757Z,0
2016-11-18T01:22:47.767Z,0
2016-11-18T01:23:47.760Z,0
2016-11-18T01:24:47.979Z,0
2016-11-18T01:25:47.787Z,0
2016-11-18T01:26:47.792Z,0
2016-11-18T01:27:47.812Z,0
2016-11-18T01:28:47.719Z,0
2016-11-18T01:29:47.736Z,0
2016-11-18T01:30:47.832Z,0
2016-11-18T01:31:47.802Z,0
2016-11-18T01:32:48.285Z,0
2016-11-18T01:33:47.748Z,0
2016-11-18T01:34:47.770Z,0
2016-11-18T01:35:47.799Z,0
2016-11-18T01:36:47.775Z,0
2016-11-18T01:37:47.880Z,0
2016-11-18T01:38:47.849Z,0
2016-11-18T01:39:48.004Z,0
2016-11-18T01:40:47.762Z,0
2016-11-18T01:41:47.753Z,0
2016-11-18T01:42:47.787Z,0
2016-11-18T01:43:47.753Z,0
2016-11-18T01:44:47.745Z,0
2016-11-18T01:45:48.598Z,0
2016-11-18T01:46:47.735Z,0
2016-11-18T01:47:47.814Z,0
2016-11-18T01:48:48.139Z,0
2016-11-18T01:49:48.129Z,0
2016-11-18T01:50:47.809Z,0
2016-11-18T01:51:47.886Z,0
2016-11-18T01:52:47.844Z,0
2016-11-18T01:53:47.785Z,0
2016-11-18T01:54:47.813Z,0
2016-11-18T01:55:47.883Z,0
2016-11-18T01:56:47.851Z,0
2016-11-18T01:57:47.880Z,0
2016-11-18T01:58:47.814Z,0
2016-11-18T01:59:47.822Z,0
2016-11-18T02:00:47.835Z,0
2016-11-18T02:01:47.823Z,0
2016-11-18T02:02:48.041Z,0
2016-11-18T02:03:47.782Z,0
2016-11-18T02:04:47.861Z,0
2016-11-18T02:05:47.749Z,0
2016-11-18T02:06:47.759Z,0
2016-11-18T02:07:47.740Z,0
2016-11-18T02:08:48.489Z,0
2016-11-18T02:09:47.896Z,0
2016-11-18T02:10:48.053Z,0
2016-11-18T02:11:47.846Z,0
2016-11-18T02:12:47.918Z,0
2016-11-18T02:13:47.791Z,0
2016-11-18T02:14:47.782Z,0
2016-11-18T02:15:47.810Z,0
2016-11-18T02:16:47.868Z,0
2016-11-18T02:17:47.874Z,0
2016-11-18T02:18:47.857Z,0
2016-11-18T02:19:47.887Z,0
2016-11-18T02:20:48.012Z,0
2016-11-18T02:21:47.935Z,0
2016-11-18T02:22:47.988Z,0
2016-11-18T02:23:47.851Z,0
2016-11-18T02:24:47.970Z,0
2016-11-18T02:25:48.308Z,0
2016-11-18T02:26:47.882Z,0
2016-11-18T02:27:48.205Z,0
2016-11-18T02:28:47.810Z,0
2016-11-18T02:29:47.801Z,0
2016-11-18T02:30:47.911Z,0
2016-11-18T02:31:47.780Z,0
2016-11-18T02:32:47.842Z,0
2016-11-18T02:33:47.940Z,0
2016-11-18T02:34:47.838Z,0
2016-11-18T02:35:47.833Z,0
2016-11-18T02:36:47.824Z,0
2016-11-18T02:37:47.933Z,0
2016-11-18T02:38:47.866Z,0
2016-11-18T02:39:48.725Z,0
2016-11-18T02:40:47.791Z,0
2016-11-18T02:41:47.940Z,0
2016-11-18T02:42:47.857Z,0
2016-11-18T02:43:47.836Z,0
2016-11-18T02:44:47.871Z,0
2016-11-18T02:45:47.995Z,0
2016-11-18T02:46:47.822Z,0
2016-11-18T02:47:48.133Z,0
2016-11-18T02:48:48.323Z,0
2016-11-18T02:49:47.829Z,0
2016-11-18T02:50:48.033Z,0
2016-11-18T02:51:47.975Z,0
2016-11-18T02:52:47.869Z,0
2016-11-18T02:53:47.832Z,0
2016-11-18T02:54:47.866Z,0
2016-11-18T02:55:47.900Z,0
2016-11-18T02:56:47.839Z,0
2016-11-18T02:57:48.119Z,0
2016-11-18T02:58:47.908Z,0
2016-11-18T02:59:47.860Z,0
2016-11-18T03:00:47.819Z,0
2016-11-18T03:01:47.822Z,0
2016-11-18T03:02:47.809Z,0
2016-11-18T03:03:47.894Z,0
2016-11-18T03:04:47.879Z,0
2016-11-18T03:05:47.829Z,0
2016-11-18T03:06:47.790Z,0
2016-11-18T03:07:47.812Z,0
2016-11-18T03:08:47.801Z,0
2016-11-18T03:09:47.974Z,0
2016-11-18T03:10:47.787Z,0
2016-11-18T03:11:48.029Z,0
2016-11-18T03:12:49.043Z,0
2016-11-18T03:13:47.799Z,0
2016-11-18T03:14:47.799Z,0
2016-11-18T03:15:47.873Z,0
2016-11-18T03:16:47.792Z,0
2016-11-18T03:17:47.820Z,0
2016-11-18T03:18:47.821Z,0
2016-11-18T03:19:47.814Z,0
2016-11-18T03:20:47.833Z,0
2016-11-18T03:21:48.886Z,0
2016-11-18T03:22:47.823Z,0
2016-11-18T03:23:47.846Z,0
2016-11-18T03:24:47.866Z,0
2016-11-18T03:25:47.827Z,0
2016-11-18T03:26:47.852Z,0
2016-11-18T03:27:48.034Z,0
2016-11-18T03:28:47.816Z,0
2016-11-18T03:29:47.788Z,0
2016-11-18T03:30:47.813Z,0
2016-11-18T03:31:47.836Z,0
2016-11-18T03:32:47.895Z,0
2016-11-18T03:33:48.051Z,0
2016-11-18T03:34:47.813Z,0
2016-11-18T03:35:47.859Z,0
2016-11-18T03:36:48.043Z,0
2016-11-18T03:37:47.906Z,0
2016-11-18T03:38:47.832Z,0
2016-11-18T03:39:47.862Z,0
2016-11-18T03:40:47.870Z,0
2016-11-18T03:41:47.819Z,0
2016-11-18T03:42:48.729Z,0
2016-11-18T03:43:47.852Z,0
2016-11-18T03:44:47.903Z,0
2016-11-18T03:45:48.300Z,0
2016-11-18T03:46:48.190Z,0
2016-11-18T03:47:47.830Z,0
2016-11-18T03:48:48.130Z,0
2016-11-18T03:49:47.831Z,0
2016-11-18T03:50:47.809Z,0
2016-11-18T03:51:48.021Z,0
2016-11-18T03:52:47.888Z,0
2016-11-18T03:53:47.856Z,0
2016-11-18T03:54:47.949Z,0
2016-11-18T03:55:47.844Z,0
2016-11-18T03:56:47.888Z,0
2016-11-18T03:57:47.830Z,0
2016-11-18T03:58:47.864Z,0
2016-11-18T03:59:47.830Z,0
2016-11-18T04:00:47.875Z,0
2016-11-18T04:01:47.837Z,0
2016-11-18T04:02:47.841Z,0
2016-11-18T04:03:48.058Z,0
2016-11-18T04:04:47.852Z,0
2016-11-18T04:05:47.834Z,0
2016-11-18T04:06:47.888Z,0
2016-11-18T04:07:47.875Z,0
2016-11-18T04:08:47.838Z,0
2016-11-18T04:09:47.854Z,0
2016-11-18T04:10:47.841Z,0
2016-11-18T04:11:47.863Z,0
2016-11-18T04:12:48.291Z,0
2016-11-18T04:13:47.859Z,0
2016-11-18T04:14:47.886Z,0
2016-11-18T04:15:47.872Z,0
2016-11-18T04:16:47.847Z,0
2016-11-18T04:17:47.840Z,0
2016-11-18T04:18:48.812Z,0
2016-11-18T04:19:47.871Z,0
2016-11-18T04:20:47.834Z,0
2016-11-18T04:21:48.278Z,0
2016-11-18T04:22:47.917Z,0
2016-11-18T04:23:47.929Z,0
2016-11-18T04:24:47.961Z,0
2016-11-18T04:25:47.869Z,0
2016-11-18T04:26:47.910Z,0
2016-11-18T04:27:48.343Z,0
2016-11-18T04:28:47.968Z,0
2016-11-18T04:29:47.955Z,0
2016-11-18T04:30:47.974Z,0
2016-11-18T04:31:47.926Z,0
2016-11-18T04:32:47.907Z,0
2016-11-18T04:33:48.119Z,0
2016-11-18T04:34:47.899Z,0
2016-11-18T04:35:47.867Z,0
2016-11-18T04:36:47.904Z,0
2016-11-18T04:37:47.937Z,0
2016-11-18T04:38:47.907Z,0
2016-11-18T04:39:48.189Z,0
2016-11-18T04:40:47.910Z,0
2016-11-18T04:41:47.917Z,0
2016-11-18T04:42:47.939Z,0
2016-11-18T04:43:47.907Z,0
2016-11-18T04:44:48.000Z,0
2016-11-18T04:45:48.369Z,0
2016-11-18T04:46:47.955Z,0
2016-11-18T04:47:47.974Z,0
2016-11-18T04:48:48.023Z,0
2016-11-18T04:49:47.975Z,0
2016-11-18T04:50:48.075Z,0
2016-11-18T04:51:48.198Z,0
2016-11-18T04:52:47.998Z,0
2016-11-18T04:53:47.991Z,0
2016-11-18T04:54:47.972Z,0
2016-11-18T04:55:48.002Z,0
2016-11-18T04:56:48.038Z,0
2016-11-18T04:57:48.334Z,0
2016-11-18T04:58:48.011Z,0
2016-11-18T04:59:48.075Z,0
2016-11-18T05:00:48.169Z,0
2016-11-18T05:01:48.131Z,0
2016-11-18T05:02:48.080Z,0
2016-11-18T05:03:48.062Z,0
2016-11-18T05:04:48.059Z,0
2016-11-18T05:05:48.072Z,0
2016-11-18T05:06:48.301Z,0
2016-11-18T05:07:48.576Z,0
2016-11-18T05:08:48.989Z,0
2016-11-18T05:09:48.064Z,0
2016-11-18T05:10:48.136Z,0
2016-11-18T05:11:48.098Z,0
2016-11-18T05:12:48.561Z,0
2016-11-18T05:13:48.006Z,0
2016-11-18T05:14:48.110Z,0
2016-11-18T05:15:48.372Z,0
2016-11-18T05:16:48.154Z,0
2016-11-18T05:17:48.951Z,0
2016-11-18T05:18:48.039Z,0
2016-11-18T05:19:48.094Z,0
2016-11-18T05:20:48.123Z,0
2016-11-18T05:21:48.275Z,0
2016-11-18T05:22:48.106Z,0
2016-11-18T05:23:48.100Z,0
2016-11-18T05:24:48.264Z,0
2016-11-18T05:25:48.093Z,0
2016-11-18T05:26:48.072Z,0
2016-11-18T05:27:48.317Z,0
2016-11-18T05:28:48.146Z,0
2016-11-18T05:29:48.123Z,0
2016-11-18T05:30:48.544Z,0
2016-11-18T05:31:48.188Z,0
2016-11-18T05:32:48.706Z,0
2016-11-18T05:33:48.880Z,0
2016-11-18T05:34:48.154Z,0
2016-11-18T05:35:48.064Z,0
2016-11-18T05:36:47.995Z,0
2016-11-18T05:37:47.940Z,0
2016-11-18T05:38:48.123Z,0
2016-11-18T05:39:48.930Z,0
2016-11-18T05:40:47.979Z,0
2016-11-18T05:41:48.773Z,0
2016-11-18T05:42:47.922Z,0
2016-11-18T05:43:48.126Z,0
2016-11-18T05:44:48.584Z,0
2016-11-18T05:45:47.972Z,0
2016-11-18T05:46:48.037Z,0
2016-11-18T05:47:47.956Z,0
2016-11-18T05:48:48.682Z,0
2016-11-18T05:49:47.937Z,0
2016-11-18T05:50:47.956Z,0
2016-11-18T05:51:48.622Z,0
2016-11-18T05:52:47.940Z,0
2016-11-18T05:53:48.005Z,0
2016-11-18T05:54:48.532Z,0
2016-11-18T05:55:47.959Z,0
2016-11-18T05:56:47.987Z,0
2016-11-18T05:57:47.937Z,0
2016-11-18T05:58:48.034Z,0
2016-11-18T05:59:48.057Z,0
2016-11-18T06:00:48.390Z,0
2016-11-18T06:01:48.021Z,0
2016-11-18T06:02:47.960Z,0
2016-11-18T06:03:49.047Z,0
2016-11-18T06:04:47.975Z,0
2016-11-18T06:05:47.946Z,0
2016-11-18T06:06:47.974Z,0
2016-11-18T06:07:47.978Z,0
2016-11-18T06:08:48.665Z,0
2016-11-18T06:09:48.037Z,0
2016-11-18T06:10:47.941Z,0
2016-11-18T06:11:47.979Z,0
2016-11-18T06:12:47.983Z,0
2016-11-18T06:13:47.975Z,0
2016-11-18T06:14:47.961Z,0
2016-11-18T06:15:48.446Z,0
2016-11-18T06:16:47.972Z,0
2016-11-18T06:17:48.008Z,0
2016-11-18T06:18:47.963Z,0
2016-11-18T06:19:47.966Z,0
2016-11-18T06:20:48.001Z,0
2016-11-18T06:21:48.859Z,0
2016-11-18T06:22:47.969Z,0
2016-11-18T06:23:48.003Z,0
2016-11-18T06:24:48.006Z,0
2016-11-18T06:25:48.037Z,0
2016-11-18T06:26:48.001Z,0
2016-11-18T06:27:48.293Z,0
2016-11-18T06:28:48.015Z,0
2016-11-18T06:29:47.990Z,0
2016-11-18T06:30:48.251Z,0
2016-11-18T06:31:48.091Z,0
2016-11-18T06:32:47.974Z,0
2016-11-18T06:33:47.998Z,0
2016-11-18T06:34:48.022Z,0
2016-11-18T06:35:47.993Z,0
2016-11-18T06:36:49.759Z,0
2016-11-18T06:37:48.063Z,0
2016-11-18T06:38:48.050Z,0
2016-11-18T06:39:48.695Z,0
2016-11-18T06:40:48.003Z,0
2016-11-18T06:41:48.034Z,0
2016-11-18T06:42:47.987Z,0
2016-11-18T06:43:48.021Z,0
2016-11-18T06:44:48.025Z,0
2016-11-18T06:45:47.977Z,0
2016-11-18T06:46:48.013Z,0
2016-11-18T06:47:48.058Z,0
2016-11-18T06:48:47.953Z,0
2016-11-18T06:49:48.020Z,0
2016-11-18T06:50:48.070Z,0
2016-11-18T06:51:48.850Z,0
2016-11-18T06:52:48.023Z,0
2016-11-18T06:53:47.993Z,0
2016-11-18T06:54:47.967Z,0
2016-11-18T06:55:48.027Z,0
2016-11-18T06:56:48.033Z,0
2016-11-18T06:57:47.981Z,0
2016-11-18T06:58:47.982Z,5
2016-11-18T06:59:47.938Z,5
2016-11-18T07:00:47.932Z,5
2016-11-18T07:01:47.984Z,5
2016-11-18T07:02:48.063Z,5
2016-11-18T07:03:48.041Z,5
2016-11-18T07:04:48.004Z,10
2016-11-18T07:05:47.951Z,10
2016-11-18T07:06:48.049Z,10
2016-11-18T07:07:48.227Z,10
2016-11-18T07:08:48.028Z,10
2016-11-18T07:09:48.109Z,10
2016-11-18T07:10:48.054Z,15
2016-11-18T07:11:48.263Z,15
2016-11-18T07:12:48.240Z,15
2016-11-18T07:13:48.363Z,15
2016-11-18T07:14:48.720Z,15
2016-11-18T07:15:48.776Z,15
2016-11-18T07:16:48.746Z,15
2016-11-18T07:17:48.686Z,15
2016-11-18T07:18:48.198Z,20
2016-11-18T07:19:48.398Z,20
2016-11-18T07:20:48.253Z,20
2016-11-18T07:21:49.101Z,20
2016-11-18T07:22:48.389Z,20
2016-11-18T07:23:48.256Z,20
2016-11-18T07:24:48.135Z,20
2016-11-18T07:25:48.312Z,25
2016-11-18T07:26:48.397Z,25
2016-11-18T07:27:48.926Z,25
2016-11-18T07:28:48.212Z,25
2016-11-18T07:29:48.064Z,25
2016-11-18T07:30:48.840Z,25
2016-11-18T07:31:47.998Z,30
2016-11-18T07:32:48.051Z,30
2016-11-18T07:33:48.010Z,30
2016-11-18T07:34:48.080Z,35
2016-11-18T07:35:48.037Z,35
2016-11-18T07:36:48.071Z,40
2016-11-18T07:37:48.035Z,40
2016-11-18T07:38:48.518Z,40
2016-11-18T07:39:48.863Z,40
2016-11-18T07:40:48.867Z,40
2016-11-18T07:41:48.789Z,40
2016-11-18T07:42:48.180Z,40
2016-11-18T07:43:48.678Z,40
2016-11-18T07:44:48.071Z,40
2016-11-18T07:45:48.144Z,35
2016-11-18T07:46:48.081Z,35
2016-11-18T07:47:48.036Z,35
2016-11-18T07:48:48.041Z,35
2016-11-18T07:49:48.113Z,35
2016-11-18T07:50:48.023Z,35
2016-11-18T07:51:48.022Z,35
2016-11-18T07:52:48.035Z,35
2016-11-18T07:53:48.046Z,35
2016-11-18T07:54:48.083Z,35
2016-11-18T07:55:48.063Z,35
2016-11-18T07:56:48.033Z,35
2016-11-18T07:57:48.032Z,35
2016-11-18T07:58:48.065Z,40
2016-11-18T07:59:48.038Z,40
2016-11-18T08:00:48.057Z,40
2016-11-18T08:01:49.286Z,40
2016-11-18T08:02:48.057Z,45
2016-11-18T08:03:48.045Z,45
2016-11-18T08:04:48.128Z,50
2016-11-18T08:05:48.067Z,50
2016-11-18T08:06:48.103Z,50
2016-11-18T08:07:48.032Z,50
2016-11-18T08:08:48.148Z,55
2016-11-18T08:09:48.112Z,60
2016-11-18T08:10:48.222Z,65
2016-11-18T08:11:49.571Z,60
2016-11-18T08:12:48.100Z,55
2016-11-18T08:13:48.042Z,55
2016-11-18T08:14:48.587Z,55
2016-11-18T08:15:48.053Z,55
2016-11-18T08:16:48.109Z,55
2016-11-18T08:17:48.727Z,55
2016-11-18T08:18:48.068Z,55
2016-11-18T08:19:48.691Z,60
2016-11-18T08:20:48.475Z,65
2016-11-18T08:21:48.090Z,65
2016-11-18T08:22:50.189Z,65
2016-11-18T08:23:48.443Z,65
2016-11-18T08:24:48.086Z,65
2016-11-18T08:25:49.056Z,65
2016-11-18T08:26:48.080Z,65
2016-11-18T08:27:48.302Z,65
2016-11-18T08:28:50.544Z,65
2016-11-18T08:29:48.307Z,65
2016-11-18T08:30:48.158Z,65
2016-11-18T08:31:48.108Z,65
2016-11-18T08:32:48.192Z,70
2016-11-18T08:33:48.379Z,70
2016-11-18T08:34:48.384Z,75
2016-11-18T08:35:48.148Z,75
2016-11-18T08:36:48.082Z,80
2016-11-18T08:37:48.173Z,85
2016-11-18T08:38:48.065Z,90
2016-11-18T08:39:48.332Z,85
2016-11-18T08:40:48.194Z,85
2016-11-18T08:41:48.104Z,85
2016-11-18T08:42:48.223Z,95
2016-11-18T08:43:48.126Z,95
2016-11-18T08:44:48.325Z,100
2016-11-18T08:45:48.251Z,95
2016-11-18T08:46:48.069Z,100
2016-11-18T08:47:48.090Z,100
2016-11-18T08:48:48.057Z,105
2016-11-18T08:49:48.055Z,115
2016-11-18T08:50:48.101Z,115
2016-11-18T08:51:48.323Z,115
2016-11-18T08:52:48.058Z,115
2016-11-18T08:53:48.048Z,110
2016-11-18T08:54:48.077Z,110
2016-11-18T08:55:48.500Z,105
2016-11-18T08:56:48.139Z,105
2016-11-18T08:57:48.141Z,100
2016-11-18T08:58:48.130Z,100
2016-11-18T08:59:48.337Z,100
2016-11-18T09:00:48.071Z,100
2016-11-18T09:01:49.618Z,95
2016-11-18T09:02:49.479Z,85
2016-11-18T09:03:49.173Z,80
2016-11-18T09:04:48.548Z,90
2016-11-18T09:05:48.535Z,105
2016-11-18T09:06:49.660Z,110
2016-11-18T09:07:48.273Z,125
2016-11-18T09:08:48.828Z,130
2016-11-18T09:09:48.433Z,130
2016-11-18T09:10:48.135Z,135
2016-11-18T09:11:48.351Z,135
2016-11-18T09:12:49.703Z,135
2016-11-18T09:13:48.278Z,135
2016-11-18T09:14:48.320Z,130
2016-11-18T09:15:48.289Z,125
2016-11-18T09:16:48.239Z,120
2016-11-18T09:17:48.291Z,110
2016-11-18T09:18:48.696Z,100
2016-11-18T09:19:48.610Z,95
2016-11-18T09:20:48.627Z,90
2016-11-18T09:21:48.225Z,85
2016-11-18T09:22:48.116Z,95
2016-11-18T09:23:48.098Z,100
2016-11-18T09:24:48.447Z,95
2016-11-18T09:25:48.098Z,95
2016-11-18T09:26:48.120Z,90
2016-11-18T09:27:48.089Z,85
2016-11-18T09:28:48.076Z,75
2016-11-18T09:29:48.193Z,70
2016-11-18T09:30:48.132Z,70
2016-11-18T09:31:48.128Z,70
2016-11-18T09:32:48.114Z,70
2016-11-18T09:33:48.412Z,70
2016-11-18T09:34:48.092Z,70
2016-11-18T09:35:48.118Z,75
2016-11-18T09:36:48.135Z,80
2016-11-18T09:37:48.095Z,100
2016-11-18T09:38:48.165Z,115
2016-11-18T09:39:48.162Z,140
2016-11-18T09:40:48.185Z,150
2016-11-18T09:41:48.146Z,155
2016-11-18T09:42:48.140Z,160
2016-11-18T09:43:48.164Z,175
2016-11-18T09:44:48.097Z,190
2016-11-18T09:45:48.247Z,195
2016-11-18T09:46:48.136Z,175
2016-11-18T09:47:48.110Z,160
2016-11-18T09:48:48.205Z,170
2016-11-18T09:49:48.141Z,175
2016-11-18T09:50:48.248Z,150
2016-11-18T09:51:48.171Z,175
2016-11-18T09:52:48.145Z,170
2016-11-18T09:53:48.132Z,130
2016-11-18T09:54:48.136Z,125
2016-11-18T09:55:48.161Z,130
2016-11-18T09:56:50.648Z,125
2016-11-18T09:57:48.490Z,115
2016-11-18T09:58:48.814Z,120
2016-11-18T09:59:48.773Z,135
2016-11-18T10:00:48.439Z,125
2016-11-18T10:01:48.134Z,125
2016-11-18T10:02:48.890Z,125
2016-11-18T10:03:48.136Z,135
2016-11-18T10:04:48.772Z,135
2016-11-18T10:05:48.097Z,140
2016-11-18T10:06:48.118Z,135
2016-11-18T10:07:48.164Z,125
2016-11-18T10:08:48.201Z,135
2016-11-18T10:09:48.680Z,145
2016-11-18T10:10:48.158Z,155
2016-11-18T10:11:48.113Z,155
2016-11-18T10:12:48.167Z,155
2016-11-18T10:13:48.195Z,155
2016-11-18T10:14:49.075Z,155
2016-11-18T10:15:48.233Z,150
2016-11-18T10:16:48.121Z,145
2016-11-18T10:17:48.350Z,145
2016-11-18T10:18:48.148Z,160
2016-11-18T10:19:48.148Z,165
2016-11-18T10:20:48.210Z,170
2016-11-18T10:21:48.183Z,175
2016-11-18T10:22:48.253Z,150
2016-11-18T10:23:48.913Z,120
2016-11-18T10:24:48.186Z,115
2016-11-18T10:25:48.213Z,115
2016-11-18T10:26:48.214Z,120
2016-11-18T10:27:48.176Z,120
2016-11-18T10:28:48.127Z,115
2016-11-18T10:29:48.186Z,125
2016-11-18T10:30:48.231Z,145
2016-11-18T10:31:48.137Z,145
2016-11-18T10:32:48.159Z,150
2016-11-18T10:33:48.118Z,150
2016-11-18T10:34:48.144Z,135
2016-11-18T10:35:48.199Z,120
2016-11-18T10:36:48.146Z,110
2016-11-18T10:37:48.234Z,110
2016-11-18T10:38:48.167Z,105
2016-11-18T10:39:48.272Z,110
2016-11-18T10:40:48.134Z,115
2016-11-18T10:41:48.311Z,115
2016-11-18T10:42:48.166Z,120
2016-11-18T10:43:48.179Z,120
2016-11-18T10:44:48.140Z,120
2016-11-18T10:45:48.183Z,120
2016-11-18T10:46:48.199Z,125
2016-11-18T10:47:48.314Z,140
2016-11-18T10:48:48.163Z,150
2016-11-18T10:49:48.145Z,155
2016-11-18T10:50:48.169Z,155
2016-11-18T10:51:48.222Z,160
2016-11-18T10:52:48.127Z,165
2016-11-18T10:53:48.202Z,170
2016-11-18T10:54:48.185Z,180
2016-11-18T10:55:48.185Z,175
2016-11-18T10:56:48.212Z,180
2016-11-18T10:57:48.179Z,190
2016-11-18T10:58:48.145Z,190
2016-11-18T10:59:48.234Z,175
2016-11-18T11:00:48.209Z,170
2016-11-18T11:01:48.234Z,160
2016-11-18T11:02:48.180Z,150
2016-11-18T11:03:48.224Z,150
2016-11-18T11:04:48.280Z,155
2016-11-18T11:05:48.272Z,160
2016-11-18T11:06:48.272Z,160
2016-11-18T11:07:48.285Z,160
2016-11-18T11:08:48.252Z,160
2016-11-18T11:09:48.390Z,145
2016-11-18T11:10:48.632Z,135
2016-11-18T11:11:48.234Z,130
2016-11-18T11:12:48.245Z,130
2016-11-18T11:13:48.234Z,135
2016-11-18T11:14:48.205Z,140
2016-11-18T11:15:48.170Z,135
2016-11-18T11:16:48.203Z,130
2016-11-18T11:17:48.286Z,140
2016-11-18T11:18:48.176Z,135
2016-11-18T11:19:48.227Z,145
2016-11-18T11:20:48.240Z,150
2016-11-18T11:21:48.203Z,150
2016-11-18T11:22:48.254Z,145
2016-11-18T11:23:48.347Z,150
2016-11-18T11:24:48.237Z,160
2016-11-18T11:25:48.386Z,165
2016-11-18T11:26:48.251Z,165
2016-11-18T11:27:48.273Z,165
2016-11-18T11:28:48.233Z,155
2016-11-18T11:29:48.330Z,155
2016-11-18T11:30:48.277Z,160
2016-11-18T11:31:48.223Z,150
2016-11-18T11:32:48.247Z,155
2016-11-18T11:33:48.282Z,155
2016-11-18T11:34:48.340Z,155
2016-11-18T11:35:48.274Z,160
2016-11-18T11:36:48.342Z,170
2016-11-18T11:37:48.264Z,200
2016-11-18T11:38:48.276Z,210
2016-11-18T11:39:48.268Z,205
2016-11-18T11:40:48.306Z,170
2016-11-18T11:41:48.356Z,150
2016-11-18T11:42:48.843Z,145
2016-11-18T11:43:48.329Z,175
2016-11-18T11:44:48.348Z,195
2016-11-18T11:45:49.305Z,180
2016-11-18T11:46:48.302Z,155
2016-11-18T11:47:48.283Z,150
2016-11-18T11:48:48.390Z,140
2016-11-18T11:49:48.329Z,135
2016-11-18T11:50:48.330Z,130
2016-11-18T11:51:48.940Z,125
2016-11-18T11:52:48.395Z,115
2016-11-18T11:53:48.267Z,105
2016-11-18T11:54:48.418Z,105
2016-11-18T11:55:49.496Z,120
2016-11-18T11:56:48.379Z,115
2016-11-18T11:57:48.421Z,115
2016-11-18T11:58:48.373Z,105
2016-11-18T11:59:48.347Z,110
2016-11-18T12:00:48.540Z,120
2016-11-18T12:01:49.114Z,120
2016-11-18T12:02:48.434Z,115
2016-11-18T12:03:48.368Z,130
2016-11-18T12:04:48.313Z,120
2016-11-18T12:05:48.287Z,110
2016-11-18T12:06:48.333Z,100
2016-11-18T12:07:48.368Z,95
2016-11-18T12:08:48.415Z,100
2016-11-18T12:09:48.399Z,100
2016-11-18T12:10:48.861Z,90
2016-11-18T12:11:48.257Z,100
2016-11-18T12:12:48.812Z,95
2016-11-18T12:13:48.756Z,100
2016-11-18T12:14:48.412Z,95
2016-11-18T12:15:48.308Z,95
2016-11-18T12:16:48.342Z,100
2016-11-18T12:17:48.398Z,100
2016-11-18T12:18:48.348Z,100
2016-11-18T12:19:48.350Z,105
2016-11-18T12:20:48.407Z,100
2016-11-18T12:21:48.731Z,100
2016-11-18T12:22:48.356Z,100
2016-11-18T12:23:49.302Z,120
2016-11-18T12:24:48.411Z,115
2016-11-18T12:25:48.237Z,105
2016-11-18T12:26:48.308Z,120
2016-11-18T12:27:48.292Z,100
2016-11-18T12:28:48.272Z,100
2016-11-18T12:29:48.614Z,95
2016-11-18T12:30:48.310Z,110
2016-11-18T12:31:48.256Z,120
2016-11-18T12:32:48.336Z,95
2016-11-18T12:33:48.404Z,100
2016-11-18T12:34:48.240Z,95
2016-11-18T12:35:48.370Z,90
2016-11-18T12:36:48.255Z,90
2016-11-18T12:37:48.970Z,95
2016-11-18T12:38:48.211Z,100
2016-11-18T12:39:48.206Z,105
2016-11-18T12:40:48.266Z,105
2016-11-18T12:41:48.405Z,105
2016-11-18T12:42:48.256Z,105
2016-11-18T12:43:48.227Z,105
2016-11-18T12:44:48.235Z,105
2016-11-18T12:45:48.227Z,100
2016-11-18T12:46:48.226Z,100
2016-11-18T12:47:48.282Z,100
2016-11-18T12:48:48.217Z,100
2016-11-18T12:49:48.236Z,100
2016-11-18T12:50:48.244Z,100
2016-11-18T12:51:48.260Z,100
2016-11-18T12:52:48.342Z,100
2016-11-18T12:53:48.327Z,100
2016-11-18T12:54:48.356Z,95
2016-11-18T12:55:48.362Z,95
2016-11-18T12:56:48.267Z,95
2016-11-18T12:57:48.273Z,95
2016-11-18T12:58:48.410Z,100
2016-11-18T12:59:48.225Z,105
2016-11-18T13:00:48.257Z,110
2016-11-18T13:01:48.334Z,110
2016-11-18T13:02:48.317Z,110
2016-11-18T13:03:48.295Z,105
2016-11-18T13:04:48.361Z,100
2016-11-18T13:05:48.247Z,100
2016-11-18T13:06:48.256Z,100
2016-11-18T13:07:48.372Z,95
2016-11-18T13:08:48.449Z,90
2016-11-18T13:09:48.265Z,90
2016-11-18T13:10:48.330Z,90
2016-11-18T13:11:48.274Z,90
2016-11-18T13:12:48.285Z,100
2016-11-18T13:13:48.290Z,95
2016-11-18T13:14:48.289Z,110
2016-11-18T13:15:48.233Z,100
2016-11-18T13:16:48.270Z,90
2016-11-18T13:17:48.295Z,95
2016-11-18T13:18:48.436Z,100
2016-11-18T13:19:48.511Z,120
2016-11-18T13:20:48.297Z,100
2016-11-18T13:21:48.334Z,95
2016-11-18T13:22:48.891Z,90
2016-11-18T13:23:49.479Z,95
2016-11-18T13:24:48.356Z,95
2016-11-18T13:25:50.733Z,105
2016-11-18T13:26:50.071Z,100
2016-11-18T13:27:48.376Z,95
2016-11-18T13:28:48.274Z,90
2016-11-18T13:29:48.359Z,90
2016-11-18T13:30:48.321Z,90
2016-11-18T13:31:48.290Z,90
2016-11-18T13:32:48.324Z,80
2016-11-18T13:33:48.705Z,85
2016-11-18T13:34:48.361Z,85
2016-11-18T13:35:48.649Z,85
2016-11-18T13:36:48.414Z,80
2016-11-18T13:37:48.381Z,80
2016-11-18T13:38:48.571Z,85
2016-11-18T13:39:48.808Z,85
2016-11-18T13:40:48.597Z,85
2016-11-18T13:41:48.738Z,80
2016-11-18T13:42:48.353Z,80
2016-11-18T13:43:48.304Z,80
2016-11-18T13:44:48.436Z,75
2016-11-18T13:45:49.315Z,85
2016-11-18T13:46:48.408Z,75
2016-11-18T13:47:48.387Z,70
2016-11-18T13:48:48.919Z,70
2016-11-18T13:49:48.781Z,70
2016-11-18T13:50:48.949Z,70
2016-11-18T13:51:48.963Z,70
2016-11-18T13:52:48.276Z,65
2016-11-18T13:53:48.888Z,65
2016-11-18T13:54:48.304Z,65
2016-11-18T13:55:48.445Z,65
2016-11-18T13:56:48.331Z,65
2016-11-18T13:57:48.362Z,60
2016-11-18T13:58:48.356Z,60
2016-11-18T13:59:48.471Z,60
2016-11-18T14:00:48.563Z,60
2016-11-18T14:01:48.349Z,60
2016-11-18T14:02:48.326Z,60
2016-11-18T14:03:48.380Z,65
2016-11-18T14:04:48.284Z,70
2016-11-18T14:05:48.466Z,70
2016-11-18T14:06:48.470Z,70
2016-11-18T14:07:48.383Z,70
2016-11-18T14:08:48.321Z,65
2016-11-18T14:09:48.570Z,65
2016-11-18T14:10:48.593Z,65
2016-11-18T14:11:48.396Z,60
2016-11-18T14:12:48.373Z,65
2016-11-18T14:13:48.572Z,60
2016-11-18T14:14:48.691Z,60
2016-11-18T14:15:48.499Z,60
2016-11-18T14:16:48.459Z,55
2016-11-18T14:17:48.472Z,55
2016-11-18T14:18:48.425Z,55
2016-11-18T14:19:48.352Z,55
2016-11-18T14:20:48.396Z,55
2016-11-18T14:21:48.506Z,50
2016-11-18T14:22:48.418Z,50